createdAt,value
2018-07-15T00:01:27.993Z,20.70
2018-07-15T00:03:56.754Z,20.70
2018-07-15T00:06:26.174Z,20.60
2018-07-15T00:08:55.899Z,20.60
2018-07-15T00:11:24.710Z,20.50
2018-07-15T00:13:54.671Z,20.50
2018-07-15T00:16:23.895Z,20.40
2018-07-15T00:18:52.716Z,20.30
2018-07-15T00:21:22.531Z,20.30
2018-07-15T00:23:51.331Z,20.20
2018-07-15T00:26:20.154Z,20.20
2018-07-15T00:28:49.165Z,20.10
2018-07-15T00:31:17.993Z,20.00
2018-07-15T00:33:46.810Z,20.00
2018-07-15T00:36:15.588Z,20.00
2018-07-15T00:38:44.394Z,19.90
2018-07-15T00:41:13.145Z,19.90
2018-07-15T00:43:41.887Z,19.90
2018-07-15T00:46:10.795Z,19.80
2018-07-15T00:48:40.817Z,19.80
2018-07-15T00:51:09.639Z,19.80
2018-07-15T00:53:38.411Z,19.60
2018-07-15T00:56:07.331Z,19.60
2018-07-15T00:58:36.092Z,19.70
2018-07-15T01:01:04.867Z,19.60
2018-07-15T01:03:34.364Z,19.60
2018-07-15T01:06:03.155Z,19.60
2018-07-15T01:08:33.289Z,19.60
2018-07-15T01:11:02.064Z,19.60
2018-07-15T01:16:00.948Z,19.50
2018-07-15T01:18:29.763Z,19.50
2018-07-15T01:20:58.460Z,19.50
2018-07-15T01:23:27.278Z,19.40
2018-07-15T01:25:56.061Z,19.30
2018-07-15T01:28:25.545Z,19.30
2018-07-15T01:30:55.432Z,19.30
2018-07-15T01:33:24.136Z,19.20
2018-07-15T01:35:53.593Z,19.20
2018-07-15T01:38:22.353Z,19.20
2018-07-15T01:40:51.171Z,19.20
2018-07-15T01:43:19.996Z,19.10
2018-07-15T01:45:49.714Z,19.00
2018-07-15T01:48:19.328Z,19.00
2018-07-15T01:50:48.093Z,19.00
2018-07-15T01:53:16.884Z,18.90
2018-07-15T01:55:45.661Z,18.90
2018-07-15T01:58:15.072Z,18.90
2018-07-15T02:00:43.893Z,18.90
2018-07-15T02:03:12.646Z,18.90
2018-07-15T02:05:41.526Z,18.90
2018-07-15T02:08:10.264Z,19.00
2018-07-15T02:10:39.132Z,19.00
2018-07-15T02:13:07.952Z,19.00
2018-07-15T02:15:36.830Z,18.90
2018-07-15T02:18:05.629Z,18.90
2018-07-15T02:20:35.694Z,18.90
2018-07-15T02:23:05.658Z,19.00
2018-07-15T02:25:34.598Z,18.90
2018-07-15T02:28:04.618Z,19.00
2018-07-15T02:30:33.454Z,19.00
2018-07-15T02:33:02.222Z,19.00
2018-07-15T02:35:30.958Z,19.00
2018-07-15T02:37:59.747Z,19.10
2018-07-15T02:40:28.494Z,19.20
2018-07-15T02:42:57.329Z,19.10
2018-07-15T02:45:26.076Z,19.10
2018-07-15T02:50:24.594Z,19.20
2018-07-15T02:52:53.345Z,19.30
2018-07-15T02:55:22.146Z,19.30
2018-07-15T02:57:51.032Z,19.30
2018-07-15T03:00:20.122Z,19.30
2018-07-15T03:02:49.945Z,19.30
2018-07-15T03:05:18.650Z,19.40
2018-07-15T03:07:48.084Z,19.60
2018-07-15T03:10:17.617Z,20.00
2018-07-15T03:12:46.416Z,20.50
2018-07-15T03:15:16.240Z,21.10
2018-07-15T03:17:45.103Z,21.70
2018-07-15T03:20:14.818Z,22.40
2018-07-15T03:22:44.324Z,23.10
2018-07-15T03:25:14.255Z,23.50
2018-07-15T03:27:42.960Z,24.00
2018-07-15T03:30:12.665Z,24.20
2018-07-15T03:32:41.399Z,24.60
2018-07-15T03:35:10.292Z,24.90
2018-07-15T03:37:39.047Z,25.20
2018-07-15T03:40:07.838Z,25.40
2018-07-15T03:42:36.811Z,25.60
2018-07-15T03:45:06.199Z,25.60
2018-07-15T03:50:28.358Z,25.20
2018-07-15T03:52:57.103Z,24.90
2018-07-15T03:55:25.891Z,24.70
2018-07-15T03:57:54.714Z,24.80
2018-07-15T04:00:23.466Z,25.10
2018-07-15T04:02:52.340Z,25.50
2018-07-15T04:05:22.577Z,26.00
2018-07-15T04:07:51.323Z,26.40
2018-07-15T04:10:20.207Z,26.80
2018-07-15T04:12:48.931Z,27.40
2018-07-15T04:15:17.674Z,27.70
2018-07-15T04:17:50.831Z,28.20
2018-07-15T04:20:19.588Z,28.30
2018-07-15T04:22:48.318Z,28.70
2018-07-15T04:25:17.093Z,28.80
2018-07-15T04:27:45.930Z,28.80
2018-07-15T04:30:14.618Z,29.20
2018-07-15T04:32:43.359Z,29.40
2018-07-15T04:35:12.075Z,29.90
2018-07-15T04:37:40.926Z,30.10
2018-07-15T04:40:09.782Z,30.10
2018-07-15T04:42:38.618Z,30.10
2018-07-15T04:45:07.392Z,29.90
2018-07-15T04:47:36.222Z,29.90
2018-07-15T04:50:05.025Z,29.90
2018-07-15T04:52:34.870Z,30.10
2018-07-15T04:55:03.664Z,30.40
2018-07-15T04:57:32.437Z,30.80
2018-07-15T05:00:01.176Z,30.70
2018-07-15T05:02:29.950Z,30.50
2018-07-15T05:04:58.715Z,30.10
2018-07-15T05:07:27.522Z,30.00
2018-07-15T05:09:56.252Z,30.00
2018-07-15T05:12:25.048Z,30.00
2018-07-15T05:14:53.771Z,29.90
2018-07-15T05:17:22.519Z,30.00
2018-07-15T05:19:51.988Z,29.90
2018-07-15T05:22:20.736Z,30.20
2018-07-15T05:24:49.545Z,30.10
2018-07-15T05:27:19.161Z,30.20
2018-07-15T05:29:48.018Z,30.30
2018-07-15T05:32:16.763Z,30.50
2018-07-15T05:34:45.470Z,30.60
2018-07-15T05:37:14.318Z,30.60
2018-07-15T05:39:43.091Z,30.60
2018-07-15T05:42:11.844Z,30.80
2018-07-15T05:44:40.584Z,30.90
2018-07-15T05:47:09.343Z,30.70
2018-07-15T05:49:38.147Z,30.50
2018-07-15T05:52:06.994Z,30.60
2018-07-15T05:54:35.779Z,30.40
2018-07-15T05:57:04.454Z,30.10
2018-07-15T05:59:33.141Z,30.10
2018-07-15T06:02:01.886Z,29.80
2018-07-15T06:04:30.672Z,29.60
2018-07-15T06:06:59.416Z,29.40
2018-07-15T06:09:28.195Z,29.00
2018-07-15T06:11:56.968Z,28.70
2018-07-15T06:14:25.774Z,28.50
2018-07-15T06:16:54.584Z,28.60
2018-07-15T06:19:23.408Z,28.40
2018-07-15T06:21:52.195Z,28.20
2018-07-15T06:24:21.835Z,28.10
2018-07-15T06:26:50.593Z,27.90
2018-07-15T06:29:19.340Z,27.80
2018-07-15T06:31:48.138Z,27.70
2018-07-15T06:34:16.857Z,27.60
2018-07-15T06:36:45.599Z,27.50
2018-07-15T06:39:14.461Z,27.30
2018-07-15T06:41:43.235Z,27.20
2018-07-15T06:44:13.220Z,27.40
2018-07-15T06:46:41.987Z,27.40
2018-07-15T06:49:10.732Z,27.40
2018-07-15T06:51:39.575Z,27.30
2018-07-15T06:54:08.381Z,27.40
2018-07-15T06:56:37.102Z,27.50
2018-07-15T06:59:05.930Z,27.30
2018-07-15T07:01:34.807Z,27.10
2018-07-15T07:04:03.561Z,27.10
2018-07-15T07:06:32.356Z,27.30
2018-07-15T07:09:02.415Z,27.50
2018-07-15T07:11:31.225Z,27.60
2018-07-15T07:14:00.013Z,27.60
2018-07-15T07:16:28.716Z,27.80
2018-07-15T07:18:57.489Z,27.80
2018-07-15T07:21:26.265Z,27.80
2018-07-15T07:23:56.416Z,28.00
2018-07-15T07:26:25.282Z,28.00
2018-07-15T07:28:55.307Z,28.10
2018-07-15T07:31:24.151Z,28.10
2018-07-15T07:33:52.881Z,28.20
2018-07-15T07:36:21.623Z,28.50
2018-07-15T07:38:50.480Z,28.50
2018-07-15T07:41:20.266Z,28.50
2018-07-15T07:43:49.211Z,28.50
2018-07-15T07:46:18.880Z,28.60
2018-07-15T07:48:48.667Z,28.80
2018-07-15T07:51:17.438Z,29.00
2018-07-15T07:53:47.232Z,29.20
2018-07-15T07:56:15.948Z,29.30
2018-07-15T07:58:44.768Z,29.20
2018-07-15T08:01:13.528Z,29.40
2018-07-15T08:03:42.294Z,29.40
2018-07-15T08:06:11.879Z,29.40
2018-07-15T08:08:41.376Z,29.50
2018-07-15T08:11:10.129Z,29.50
2018-07-15T08:13:39.043Z,29.60
2018-07-15T08:16:08.221Z,29.60
2018-07-15T08:18:36.960Z,29.60
2018-07-15T08:21:06.707Z,29.70
2018-07-15T08:23:35.488Z,29.80
2018-07-15T08:26:04.373Z,29.70
2018-07-15T08:28:34.670Z,29.60
2018-07-15T08:31:06.350Z,29.50
2018-07-15T08:33:35.162Z,29.50
2018-07-15T08:36:04.841Z,29.60
2018-07-15T08:38:33.639Z,29.80
2018-07-15T08:41:02.498Z,29.70
2018-07-15T08:43:31.326Z,29.50
2018-07-15T08:46:00.117Z,29.40
2018-07-15T08:48:29.899Z,29.40
2018-07-15T08:50:58.676Z,29.30
2018-07-15T08:53:27.522Z,29.30
2018-07-15T08:55:56.434Z,29.40
2018-07-15T08:58:25.090Z,29.50
2018-07-15T09:00:54.967Z,29.60
2018-07-15T09:03:23.829Z,29.70
2018-07-15T09:05:52.659Z,29.80
2018-07-15T09:08:21.714Z,29.80
2018-07-15T09:10:50.492Z,29.80
2018-07-15T09:13:19.938Z,29.80
2018-07-15T09:15:49.402Z,29.70
2018-07-15T09:18:18.967Z,29.60
2018-07-15T09:20:48.890Z,29.70
2018-07-15T09:23:19.023Z,29.80
2018-07-15T09:25:48.651Z,29.90
2018-07-15T09:35:04.123Z,30.00
2018-07-15T09:37:33.697Z,29.80
2018-07-15T09:40:03.500Z,29.80
2018-07-15T09:42:33.435Z,29.90
2018-07-15T09:45:03.333Z,30.00
2018-07-15T09:47:33.127Z,30.10
2018-07-15T09:50:03.187Z,30.20
2018-07-15T09:52:32.667Z,30.40
2018-07-15T09:55:02.161Z,30.50
2018-07-15T09:57:32.158Z,30.60
2018-07-15T10:00:01.580Z,30.60
2018-07-15T10:02:31.338Z,30.50
2018-07-15T10:07:30.155Z,30.50
2018-07-15T10:09:59.733Z,30.50
2018-07-15T10:12:29.354Z,30.70
2018-07-15T10:14:59.459Z,30.80
2018-07-15T10:17:29.420Z,30.70
2018-07-15T10:19:58.855Z,30.60
2018-07-15T10:22:28.645Z,30.60
2018-07-15T10:24:58.326Z,30.60
2018-07-15T10:27:27.773Z,30.70
2018-07-15T10:29:57.442Z,30.90
2018-07-15T10:32:27.216Z,30.90
2018-07-15T10:34:56.887Z,31.00
2018-07-15T10:37:26.466Z,31.20
2018-07-15T10:39:56.610Z,31.20
2018-07-15T10:42:26.455Z,31.20
2018-07-15T10:48:54.352Z,31.50
2018-07-15T10:51:24.349Z,31.70
2018-07-15T10:53:54.059Z,31.60
2018-07-15T10:56:24.101Z,31.70
2018-07-15T10:58:52.807Z,31.80
2018-07-15T11:01:22.395Z,31.80
2018-07-15T11:03:51.836Z,31.80
2018-07-15T11:06:21.579Z,31.80
2018-07-15T11:08:51.478Z,31.80
2018-07-15T11:11:21.374Z,31.60
2018-07-15T11:13:51.101Z,31.80
2018-07-15T11:16:20.595Z,31.90
2018-07-15T11:18:50.311Z,31.90
2018-07-15T11:21:20.227Z,31.80
2018-07-15T11:23:50.185Z,31.80
2018-07-15T11:26:20.088Z,31.90
2018-07-15T11:28:50.051Z,31.90
2018-07-15T11:31:18.815Z,31.90
2018-07-15T11:33:48.753Z,32.00
2018-07-15T11:36:18.481Z,32.10
2018-07-15T11:38:48.394Z,32.10
2018-07-15T11:41:18.126Z,32.10
2018-07-15T11:43:48.030Z,32.10
2018-07-15T11:46:18.006Z,32.10
2018-07-15T11:48:47.973Z,32.30
2018-07-15T11:51:17.978Z,32.30
2018-07-15T11:53:47.727Z,32.50
2018-07-15T11:56:17.153Z,32.50
2018-07-15T11:58:46.739Z,32.50
2018-07-15T12:01:16.143Z,32.60
2018-07-15T12:03:45.793Z,32.40
2018-07-15T12:06:15.179Z,32.30
2018-07-15T12:08:44.240Z,32.10
2018-07-15T12:11:13.749Z,32.20
2018-07-15T12:13:43.296Z,32.40
2018-07-15T12:16:13.028Z,32.50
2018-07-15T12:21:11.776Z,32.50
2018-07-15T12:23:41.299Z,32.60
2018-07-15T12:26:10.917Z,32.70
2018-07-15T12:28:40.309Z,32.50
2018-07-15T12:31:09.820Z,32.30
2018-07-15T12:33:39.371Z,32.10
2018-07-15T12:36:09.586Z,32.20
2018-07-15T12:38:39.180Z,32.20
2018-07-15T12:41:08.229Z,32.00
2018-07-15T12:43:37.736Z,32.10
2018-07-15T12:46:07.424Z,32.10
2018-07-15T12:48:37.617Z,32.10
2018-07-15T12:51:07.521Z,32.10
2018-07-15T12:53:37.440Z,32.10
2018-07-15T12:56:07.457Z,31.90
2018-07-15T12:58:37.237Z,32.10
2018-07-15T13:01:06.968Z,32.20
2018-07-15T13:03:36.987Z,32.40
2018-07-15T13:06:06.636Z,32.50
2018-07-15T13:08:36.509Z,32.50
2018-07-15T13:11:06.321Z,32.60
2018-07-15T13:13:36.176Z,32.50
2018-07-15T13:16:06.252Z,32.50
2018-07-15T13:18:35.709Z,32.40
2018-07-15T13:21:05.676Z,32.50
2018-07-15T13:23:35.843Z,32.30
2018-07-15T13:26:05.914Z,32.20
2018-07-15T13:28:35.828Z,32.10
2018-07-15T13:31:05.326Z,32.20
2018-07-15T13:33:35.049Z,32.30
2018-07-15T13:36:05.090Z,32.50
2018-07-15T13:38:34.920Z,32.50
2018-07-15T13:41:04.787Z,32.50
2018-07-15T13:43:34.509Z,32.70
2018-07-15T13:46:04.208Z,32.80
2018-07-15T13:48:34.353Z,32.90
2018-07-15T13:51:04.274Z,32.90
2018-07-15T13:53:33.716Z,32.90
2018-07-15T13:56:02.961Z,33.00
2018-07-15T13:58:32.550Z,33.20
2018-07-15T14:01:02.261Z,33.20
2018-07-15T14:03:31.729Z,33.10
2018-07-15T14:06:01.286Z,33.20
2018-07-15T14:08:31.011Z,33.20
2018-07-15T14:11:01.149Z,33.40
2018-07-15T14:13:31.011Z,33.40
2018-07-15T14:16:01.215Z,33.40
2018-07-15T14:18:30.945Z,33.50
2018-07-15T14:21:00.330Z,33.60
2018-07-15T14:23:29.897Z,33.70
2018-07-15T14:25:59.748Z,33.80
2018-07-15T14:28:29.654Z,33.90
2018-07-15T14:30:59.628Z,34.00
2018-07-15T14:33:29.090Z,34.20
2018-07-15T14:38:27.664Z,34.20
2018-07-15T14:40:57.445Z,34.20
2018-07-15T14:43:27.694Z,34.30
2018-07-15T14:45:57.023Z,34.20
2018-07-15T14:48:26.940Z,34.00
2018-07-15T14:50:55.619Z,34.00
2018-07-15T14:55:54.155Z,34.00
2018-07-15T14:58:22.834Z,33.80
2018-07-15T15:00:51.524Z,33.80
2018-07-15T15:03:21.663Z,33.80
2018-07-15T15:05:51.019Z,33.70
2018-07-15T15:08:20.956Z,33.60
2018-07-15T15:10:50.860Z,33.40
2018-07-15T15:13:19.602Z,33.40
2018-07-15T15:15:49.492Z,33.40
2018-07-15T15:18:18.185Z,33.30
2018-07-15T15:20:48.067Z,33.40
2018-07-15T15:23:17.955Z,33.40
2018-07-15T15:25:47.944Z,33.40
2018-07-15T15:28:17.386Z,33.40
2018-07-15T15:30:47.301Z,33.30
2018-07-15T15:33:16.806Z,33.20
2018-07-15T15:35:46.843Z,33.20
2018-07-15T15:38:15.637Z,33.30
2018-07-15T15:40:44.439Z,33.40
2018-07-15T15:43:13.823Z,33.40
2018-07-15T15:45:42.538Z,33.40
2018-07-15T15:48:11.225Z,33.40
2018-07-15T15:50:39.862Z,33.40
2018-07-15T15:53:08.555Z,33.40
2018-07-15T15:55:37.984Z,33.40
2018-07-15T15:58:07.759Z,33.10
2018-07-15T16:00:36.526Z,33.10
2018-07-15T16:03:06.396Z,33.00
2018-07-15T16:05:35.041Z,33.10
2018-07-15T16:08:04.463Z,33.10
2018-07-15T16:10:33.150Z,33.00
2018-07-15T16:13:01.862Z,33.00
2018-07-15T16:15:31.871Z,33.00
2018-07-15T16:18:00.610Z,33.10
2018-07-15T16:20:29.274Z,33.00
2018-07-15T16:22:57.969Z,33.00
2018-07-15T16:25:27.644Z,33.10
2018-07-15T16:27:57.338Z,33.20
2018-07-15T16:30:26.163Z,33.30
2018-07-15T16:32:55.499Z,33.20
2018-07-15T16:35:24.267Z,33.20
2018-07-15T16:37:54.007Z,33.30
2018-07-15T16:40:22.737Z,33.20
2018-07-15T16:42:53.158Z,33.00
2018-07-15T16:45:23.500Z,33.00
2018-07-15T16:47:52.154Z,33.00
2018-07-15T16:50:22.107Z,33.10
2018-07-15T16:52:52.460Z,33.20
2018-07-15T16:55:22.545Z,33.30
2018-07-15T16:57:52.276Z,33.30
2018-07-15T17:00:22.627Z,33.20
2018-07-15T17:05:20.764Z,33.10
2018-07-15T17:07:50.752Z,33.10
2018-07-15T17:10:21.830Z,33.20
2018-07-15T17:12:52.152Z,33.10
2018-07-15T17:15:23.299Z,33.10
2018-07-15T17:17:53.421Z,33.10
2018-07-15T17:20:22.133Z,33.00
2018-07-15T17:22:50.802Z,33.10
2018-07-15T17:25:19.508Z,33.20
2018-07-15T17:27:48.327Z,33.20
2018-07-15T17:30:18.695Z,33.30
2018-07-15T17:32:47.453Z,33.40
2018-07-15T17:35:16.843Z,33.40
2018-07-15T17:37:46.879Z,33.40
2018-07-15T17:40:16.497Z,33.50
2018-07-15T17:42:45.159Z,33.60
2018-07-15T17:45:14.446Z,33.90
2018-07-15T17:47:43.963Z,33.90
2018-07-15T17:50:12.676Z,34.00
2018-07-15T17:52:41.381Z,34.20
2018-07-15T17:55:11.090Z,34.20
2018-07-15T17:57:40.780Z,34.20
2018-07-15T18:00:10.241Z,34.20
2018-07-15T18:02:40.456Z,34.00
2018-07-15T18:05:09.690Z,33.90
2018-07-15T18:07:38.317Z,33.90
2018-07-15T18:10:08.263Z,33.80
2018-07-15T18:12:38.281Z,33.80
2018-07-15T18:15:07.704Z,33.70
2018-07-15T18:17:37.211Z,33.50
2018-07-15T18:20:06.749Z,33.10
2018-07-15T18:22:36.630Z,32.90
2018-07-15T18:25:07.013Z,32.70
2018-07-15T18:27:37.550Z,32.60
2018-07-15T18:30:06.417Z,32.30
2018-07-15T18:32:36.487Z,32.10
2018-07-15T18:35:06.661Z,31.90
2018-07-15T18:37:36.553Z,31.70
2018-07-15T18:40:07.357Z,31.50
2018-07-15T18:42:37.167Z,31.40
2018-07-15T18:45:07.255Z,31.20
2018-07-15T18:47:37.811Z,31.10
2018-07-15T18:50:08.038Z,31.00
2018-07-15T18:52:37.920Z,30.90
2018-07-15T18:55:08.020Z,30.70
2018-07-15T18:57:36.836Z,30.60
2018-07-15T19:00:06.697Z,30.50
2018-07-15T19:02:35.993Z,30.20
2018-07-15T19:05:04.843Z,30.00
2018-07-15T19:07:34.389Z,29.90
2018-07-15T19:10:03.185Z,29.80
2018-07-15T19:12:31.918Z,29.70
2018-07-15T19:15:01.585Z,29.70
2018-07-15T19:17:31.245Z,29.50
2018-07-15T19:20:00.125Z,29.40
2018-07-15T19:22:28.937Z,29.30
2018-07-15T19:24:57.616Z,29.20
2018-07-15T19:27:26.288Z,29.10
2018-07-15T19:29:55.956Z,29.00
2018-07-15T19:32:24.629Z,28.80
2018-07-15T19:34:54.344Z,28.70
2018-07-15T19:37:23.022Z,28.70
2018-07-15T19:39:52.511Z,28.60
2018-07-15T19:42:21.159Z,28.50
2018-07-15T19:44:49.873Z,28.30
2018-07-15T19:47:19.533Z,28.30
2018-07-15T19:49:48.175Z,28.20
2018-07-15T19:52:17.620Z,28.00
2018-07-15T19:54:47.273Z,27.90
2018-07-15T19:57:15.939Z,27.80
2018-07-15T19:59:44.604Z,27.70
2018-07-15T20:02:14.209Z,27.60
2018-07-15T20:04:43.598Z,27.50
2018-07-15T20:07:12.282Z,27.40
2018-07-15T20:09:40.998Z,27.30
2018-07-15T20:12:10.805Z,27.20
2018-07-15T20:14:39.474Z,27.10
2018-07-15T20:17:08.147Z,27.00
2018-07-15T20:19:36.818Z,26.90
2018-07-15T20:22:05.733Z,26.80
2018-07-15T20:24:35.387Z,26.80
2018-07-15T20:27:04.935Z,26.70
2018-07-15T20:29:34.417Z,26.60
2018-07-15T20:32:04.367Z,26.50
2018-07-15T20:34:34.205Z,26.40
2018-07-15T20:37:04.055Z,26.30
2018-07-15T20:39:33.820Z,26.20
2018-07-15T20:42:03.431Z,26.10
2018-07-15T20:44:33.327Z,26.00
2018-07-15T20:47:03.535Z,26.00
2018-07-15T20:49:33.346Z,25.90
2018-07-15T20:52:03.275Z,25.80
2018-07-15T20:54:33.010Z,25.70
2018-07-15T20:57:03.055Z,25.60
2018-07-15T20:59:32.614Z,25.50
2018-07-15T21:02:02.630Z,25.40
2018-07-15T21:04:32.860Z,25.30
2018-07-15T21:07:02.813Z,25.30
2018-07-15T21:09:32.666Z,25.20
2018-07-15T21:14:32.548Z,25.10
2018-07-15T21:17:02.480Z,25.10
2018-07-15T21:19:32.176Z,25.10
2018-07-15T21:22:01.864Z,25.10
2018-07-15T21:24:31.837Z,25.10
2018-07-15T21:27:01.491Z,25.00
2018-07-15T21:29:31.582Z,25.00
2018-07-15T21:32:01.319Z,24.90
2018-07-15T21:34:31.448Z,24.90
2018-07-15T21:37:01.362Z,24.80
2018-07-15T21:39:30.824Z,24.70
2018-07-15T21:42:00.343Z,24.60
2018-07-15T21:44:30.121Z,24.60
2018-07-15T21:46:59.787Z,24.50
2018-07-15T21:49:29.708Z,24.50
2018-07-15T21:51:59.581Z,24.40
2018-07-15T21:54:29.540Z,24.40
2018-07-15T21:56:59.699Z,24.30
2018-07-15T21:59:29.748Z,24.30
2018-07-15T22:01:59.960Z,24.20
2018-07-15T22:04:30.104Z,24.20
2018-07-15T22:07:10.578Z,24.10
2018-07-15T22:09:51.554Z,24.10
2018-07-15T22:12:21.032Z,24.00
2018-07-15T22:14:50.654Z,23.90
2018-07-15T22:17:20.149Z,23.90
2018-07-15T22:19:50.058Z,23.80
2018-07-15T22:22:19.423Z,23.80
2018-07-15T22:24:49.394Z,23.70
2018-07-15T22:27:19.114Z,23.70
2018-07-15T22:29:49.255Z,23.60
2018-07-15T22:32:19.235Z,23.50
2018-07-15T22:34:49.074Z,23.50
2018-07-15T22:37:18.796Z,23.50
2018-07-15T22:39:48.787Z,23.40
2018-07-15T22:42:18.725Z,23.40
2018-07-15T22:44:48.693Z,23.30
2018-07-15T22:47:18.684Z,23.30
2018-07-15T22:49:48.089Z,23.30
2018-07-15T22:52:17.618Z,23.20
2018-07-15T22:54:47.583Z,23.10
2018-07-15T22:57:16.454Z,23.10
2018-07-15T22:59:46.549Z,22.90
2018-07-15T23:02:16.493Z,22.90
2018-07-15T23:05:56.856Z,22.80
2018-07-15T23:08:27.548Z,22.70
2018-07-15T23:10:57.219Z,22.60
2018-07-15T23:13:26.700Z,22.50
2018-07-15T23:15:56.319Z,22.40
2018-07-15T23:18:26.415Z,22.30
2018-07-15T23:20:56.325Z,22.20
2018-07-15T23:23:26.093Z,22.20
2018-07-15T23:25:56.162Z,22.10
2018-07-15T23:28:25.666Z,22.00
2018-07-15T23:30:55.388Z,22.00
2018-07-15T23:33:25.474Z,21.90
2018-07-15T23:35:55.426Z,21.90
2018-07-15T23:38:25.176Z,21.80
2018-07-15T23:40:55.335Z,21.70
2018-07-15T23:43:25.248Z,21.70
2018-07-15T23:45:54.236Z,21.60
2018-07-15T23:48:24.150Z,21.60
2018-07-15T23:50:53.881Z,21.50
2018-07-15T23:53:23.385Z,21.50
2018-07-15T23:55:53.460Z,21.40
2018-07-15T23:58:22.974Z,21.30
